sensor_id;sensor_type;location;lat;lon;timestamp;temperature;humidity
7606;DHT22;3844;53.360;9.738;2023-02-28T00:00:58;1.40;95.70
7606;DHT22;3844;53.360;9.738;2023-02-28T00:02:59;1.40;95.70
7606;DHT22;3844;53.360;9.738;2023-02-28T00:05:00;1.40;95.70
7606;DHT22;3844;53.360;9.738;2023-02-28T00:07:01;1.40;95.70
7606;DHT22;3844;53.360;9.738;2023-02-28T00:11:05;1.40;95.70
7606;DHT22;3844;53.360;9.738;2023-02-28T00:13:06;1.30;95.70
7606;DHT22;3844;53.360;9.738;2023-02-28T00:15:10;1.30;95.70
7606;DHT22;3844;53.360;9.738;2023-02-28T00:17:13;1.30;95.70
7606;DHT22;3844;53.360;9.738;2023-02-28T00:19:14;1.30;95.70
7606;DHT22;3844;53.360;9.738;2023-02-28T00:21:15;1.30;95.70
7606;DHT22;3844;53.360;9.738;2023-02-28T00:23:16;1.30;95.70
7606;DHT22;3844;53.360;9.738;2023-02-28T00:25:19;1.30;95.70
7606;DHT22;3844;53.360;9.738;2023-02-28T00:29:21;1.30;95.70
7606;DHT22;3844;53.360;9.738;2023-02-28T00:31:22;1.30;95.70
7606;DHT22;3844;53.360;9.738;2023-02-28T00:33:23;1.20;95.70
7606;DHT22;3844;53.360;9.738;2023-02-28T00:35:23;1.20;95.70
7606;DHT22;3844;53.360;9.738;2023-02-28T00:37:24;1.20;95.70
7606;DHT22;3844;53.360;9.738;2023-02-28T00:39:25;1.20;95.70
7606;DHT22;3844;53.360;9.738;2023-02-28T00:43:26;1.20;95.70
7606;DHT22;3844;53.360;9.738;2023-02-28T00:49:29;1.10;95.70
7606;DHT22;3844;53.360;9.738;2023-02-28T00:51:30;1.10;95.70
7606;DHT22;3844;53.360;9.738;2023-02-28T00:53:30;1.00;95.70
7606;DHT22;3844;53.360;9.738;2023-02-28T00:55:32;1.00;95.70
7606;DHT22;3844;53.360;9.738;2023-02-28T00:57:33;1.00;95.70
7606;DHT22;3844;53.360;9.738;2023-02-28T00:59:34;0.90;95.70
7606;DHT22;3844;53.360;9.738;2023-02-28T01:01:35;0.90;95.70
7606;DHT22;3844;53.360;9.738;2023-02-28T01:03:36;0.90;95.70
7606;DHT22;3844;53.360;9.738;2023-02-28T01:05:37;0.90;95.70
7606;DHT22;3844;53.360;9.738;2023-02-28T01:07:37;0.80;95.70
7606;DHT22;3844;53.360;9.738;2023-02-28T01:09:38;0.80;95.70
7606;DHT22;3844;53.360;9.738;2023-02-28T01:11:39;0.70;95.70
7606;DHT22;3844;53.360;9.738;2023-02-28T01:13:42;0.60;95.70
7606;DHT22;3844;53.360;9.738;2023-02-28T01:15:50;0.50;95.70
7606;DHT22;3844;53.360;9.738;2023-02-28T01:17:51;0.40;95.70
7606;DHT22;3844;53.360;9.738;2023-02-28T01:19:54;0.30;95.70
7606;DHT22;3844;53.360;9.738;2023-02-28T01:21:55;0.30;95.70
7606;DHT22;3844;53.360;9.738;2023-02-28T01:23:57;0.20;95.70
7606;DHT22;3844;53.360;9.738;2023-02-28T01:26:06;0.10;95.70
7606;DHT22;3844;53.360;9.738;2023-02-28T01:28:08;0.10;95.70
7606;DHT22;3844;53.360;9.738;2023-02-28T01:30:09;0.10;95.70
7606;DHT22;3844;53.360;9.738;2023-02-28T01:32:10;0.00;95.70
7606;DHT22;3844;53.360;9.738;2023-02-28T01:36:17;-0.10;95.70
7606;DHT22;3844;53.360;9.738;2023-02-28T01:38:19;-0.20;95.70
7606;DHT22;3844;53.360;9.738;2023-02-28T01:40:20;-0.20;95.70
7606;DHT22;3844;53.360;9.738;2023-02-28T01:42:21;-0.20;95.70
7606;DHT22;3844;53.360;9.738;2023-02-28T01:46:59;-0.20;95.70
7606;DHT22;3844;53.360;9.738;2023-02-28T01:49:11;-0.20;95.70
7606;DHT22;3844;53.360;9.738;2023-02-28T01:51:23;-0.20;95.70
7606;DHT22;3844;53.360;9.738;2023-02-28T01:53:32;-0.30;95.70
7606;DHT22;3844;53.360;9.738;2023-02-28T01:55:34;-0.40;95.70
7606;DHT22;3844;53.360;9.738;2023-02-28T01:57:40;-0.40;95.70
7606;DHT22;3844;53.360;9.738;2023-02-28T01:59:44;-0.50;95.70
7606;DHT22;3844;53.360;9.738;2023-02-28T02:01:49;-0.60;95.70
7606;DHT22;3844;53.360;9.738;2023-02-28T02:04:02;-0.70;95.70
7606;DHT22;3844;53.360;9.738;2023-02-28T02:06:03;-0.70;95.70
7606;DHT22;3844;53.360;9.738;2023-02-28T02:08:08;-0.80;95.70
7606;DHT22;3844;53.360;9.738;2023-02-28T02:10:39;-0.90;95.70
7606;DHT22;3844;53.360;9.738;2023-02-28T02:15:05;-1.00;95.70
7606;DHT22;3844;53.360;9.738;2023-02-28T02:17:33;-1.10;95.70
7606;DHT22;3844;53.360;9.738;2023-02-28T02:29:22;-1.20;95.70
7606;DHT22;3844;53.360;9.738;2023-02-28T02:36:46;-1.30;95.70
7606;DHT22;3844;53.360;9.738;2023-02-28T02:43:19;-1.40;95.70
7606;DHT22;3844;53.360;9.738;2023-02-28T02:45:28;-1.40;95.70
7606;DHT22;3844;53.360;9.738;2023-02-28T02:47:36;-1.40;95.70
7606;DHT22;3844;53.360;9.738;2023-02-28T02:49:40;-1.50;95.70
7606;DHT22;3844;53.360;9.738;2023-02-28T02:51:44;-1.50;95.70
7606;DHT22;3844;53.360;9.738;2023-02-28T02:53:58;-1.50;95.70
7606;DHT22;3844;53.360;9.738;2023-02-28T02:56:03;-1.50;95.70
7606;DHT22;3844;53.360;9.738;2023-02-28T02:58:09;-1.60;95.70
7606;DHT22;3844;53.360;9.738;2023-02-28T03:00:12;-1.70;95.70
7606;DHT22;3844;53.360;9.738;2023-02-28T03:02:15;-1.70;95.70
7606;DHT22;3844;53.360;9.738;2023-02-28T03:04:20;-1.70;95.70
7606;DHT22;3844;53.360;9.738;2023-02-28T03:06:22;-1.70;95.70
7606;DHT22;3844;53.360;9.738;2023-02-28T03:08:23;-1.70;95.70
7606;DHT22;3844;53.360;9.738;2023-02-28T03:10:29;-1.80;95.70
7606;DHT22;3844;53.360;9.738;2023-02-28T03:12:44;-1.80;95.70
7606;DHT22;3844;53.360;9.738;2023-02-28T03:17:54;-1.80;95.70
7606;DHT22;3844;53.360;9.738;2023-02-28T03:20:27;-1.80;95.70
7606;DHT22;3844;53.360;9.738;2023-02-28T03:22:54;-1.90;95.70
7606;DHT22;3844;53.360;9.738;2023-02-28T03:27:15;-1.90;95.70
7606;DHT22;3844;53.360;9.738;2023-02-28T03:29:26;-1.90;95.70
7606;DHT22;3844;53.360;9.738;2023-02-28T03:31:40;-2.00;95.70
7606;DHT22;3844;53.360;9.738;2023-02-28T03:33:47;-2.00;95.70
7606;DHT22;3844;53.360;9.738;2023-02-28T03:36:22;-2.10;95.70
7606;DHT22;3844;53.360;9.738;2023-02-28T03:40:33;-2.10;95.70
7606;DHT22;3844;53.360;9.738;2023-02-28T03:42:38;-2.10;95.70
7606;DHT22;3844;53.360;9.738;2023-02-28T03:44:51;-2.10;95.70
7606;DHT22;3844;53.360;9.738;2023-02-28T03:47:07;-2.20;95.70
7606;DHT22;3844;53.360;9.738;2023-02-28T03:49:22;-2.20;95.70
7606;DHT22;3844;53.360;9.738;2023-02-28T03:51:25;-2.20;95.70
7606;DHT22;3844;53.360;9.738;2023-02-28T03:53:36;-2.20;95.70
7606;DHT22;3844;53.360;9.738;2023-02-28T03:58:30;-2.30;95.70
7606;DHT22;3844;53.360;9.738;2023-02-28T04:00:35;-2.30;95.70
7606;DHT22;3844;53.360;9.738;2023-02-28T04:04:39;-2.30;95.70
7606;DHT22;3844;53.360;9.738;2023-02-28T04:06:45;-2.30;95.70
7606;DHT22;3844;53.360;9.738;2023-02-28T04:08:50;-2.40;95.70
7606;DHT22;3844;53.360;9.738;2023-02-28T04:11:01;-2.40;95.70
7606;DHT22;3844;53.360;9.738;2023-02-28T04:13:03;-2.40;95.70
7606;DHT22;3844;53.360;9.738;2023-02-28T04:15:04;-2.50;95.70
7606;DHT22;3844;53.360;9.738;2023-02-28T04:17:05;-2.50;95.70
7606;DHT22;3844;53.360;9.738;2023-02-28T04:19:08;-2.50;95.70
7606;DHT22;3844;53.360;9.738;2023-02-28T04:21:09;-2.50;95.70
7606;DHT22;3844;53.360;9.738;2023-02-28T04:25:11;-2.50;95.70
7606;DHT22;3844;53.360;9.738;2023-02-28T04:29:18;-2.50;95.70
7606;DHT22;3844;53.360;9.738;2023-02-28T04:31:19;-2.50;95.70
7606;DHT22;3844;53.360;9.738;2023-02-28T04:35:21;-2.60;95.70
7606;DHT22;3844;53.360;9.738;2023-02-28T04:39:28;-2.70;95.70
7606;DHT22;3844;53.360;9.738;2023-02-28T04:41:30;-2.70;95.70
7606;DHT22;3844;53.360;9.738;2023-02-28T04:43:31;-2.70;95.70
7606;DHT22;3844;53.360;9.738;2023-02-28T04:45:31;-2.70;95.70
7606;DHT22;3844;53.360;9.738;2023-02-28T04:47:34;-2.80;95.70
7606;DHT22;3844;53.360;9.738;2023-02-28T04:49:35;-2.80;95.70
7606;DHT22;3844;53.360;9.738;2023-02-28T04:51:35;-2.80;95.70
7606;DHT22;3844;53.360;9.738;2023-02-28T04:53:40;-2.80;95.70
7606;DHT22;3844;53.360;9.738;2023-02-28T04:55:42;-2.80;95.70
7606;DHT22;3844;53.360;9.738;2023-02-28T04:57:43;-2.80;95.70
7606;DHT22;3844;53.360;9.738;2023-02-28T04:59:44;-2.90;95.70
7606;DHT22;3844;53.360;9.738;2023-02-28T05:01:46;-2.90;95.70
7606;DHT22;3844;53.360;9.738;2023-02-28T05:03:48;-2.90;95.70
7606;DHT22;3844;53.360;9.738;2023-02-28T05:05:49;-2.90;95.70
7606;DHT22;3844;53.360;9.738;2023-02-28T05:09:50;-3.00;95.70
7606;DHT22;3844;53.360;9.738;2023-02-28T05:11:51;-3.00;95.70
7606;DHT22;3844;53.360;9.738;2023-02-28T05:13:53;-3.10;95.70
7606;DHT22;3844;53.360;9.738;2023-02-28T05:15:55;-3.10;95.70
7606;DHT22;3844;53.360;9.738;2023-02-28T05:17:55;-3.20;95.70
7606;DHT22;3844;53.360;9.738;2023-02-28T05:19:56;-3.20;95.70
7606;DHT22;3844;53.360;9.738;2023-02-28T05:21:57;-3.20;95.70
7606;DHT22;3844;53.360;9.738;2023-02-28T05:24:04;-3.20;95.70
7606;DHT22;3844;53.360;9.738;2023-02-28T05:26:05;-3.20;95.70
7606;DHT22;3844;53.360;9.738;2023-02-28T05:28:07;-3.20;95.70
7606;DHT22;3844;53.360;9.738;2023-02-28T05:30:08;-3.30;95.70
7606;DHT22;3844;53.360;9.738;2023-02-28T05:32:11;-3.30;95.70
7606;DHT22;3844;53.360;9.738;2023-02-28T05:34:12;-3.30;95.70
7606;DHT22;3844;53.360;9.738;2023-02-28T05:36:13;-3.30;95.70
7606;DHT22;3844;53.360;9.738;2023-02-28T05:40:16;-3.40;95.70
7606;DHT22;3844;53.360;9.738;2023-02-28T05:42:16;-3.40;95.70
7606;DHT22;3844;53.360;9.738;2023-02-28T05:44:17;-3.40;95.70
7606;DHT22;3844;53.360;9.738;2023-02-28T05:46:18;-3.40;95.70
7606;DHT22;3844;53.360;9.738;2023-02-28T05:48:18;-3.40;95.70
7606;DHT22;3844;53.360;9.738;2023-02-28T05:50:19;-3.40;95.70
7606;DHT22;3844;53.360;9.738;2023-02-28T05:52:20;-3.30;95.70
7606;DHT22;3844;53.360;9.738;2023-02-28T05:54:20;-3.30;95.70
7606;DHT22;3844;53.360;9.738;2023-02-28T05:56:21;-3.40;95.70
7606;DHT22;3844;53.360;9.738;2023-02-28T05:58:22;-3.30;95.70
7606;DHT22;3844;53.360;9.738;2023-02-28T06:02:24;-3.30;95.70
7606;DHT22;3844;53.360;9.738;2023-02-28T06:04:25;-3.30;95.70
7606;DHT22;3844;53.360;9.738;2023-02-28T06:06:25;-3.40;95.70
7606;DHT22;3844;53.360;9.738;2023-02-28T06:08:26;-3.40;95.70
7606;DHT22;3844;53.360;9.738;2023-02-28T06:10:27;-3.40;95.70
7606;DHT22;3844;53.360;9.738;2023-02-28T06:12:28;-3.40;95.70
7606;DHT22;3844;53.360;9.738;2023-02-28T06:14:28;-3.40;95.70
7606;DHT22;3844;53.360;9.738;2023-02-28T06:16:33;-3.50;95.70
7606;DHT22;3844;53.360;9.738;2023-02-28T06:18:34;-3.50;95.70
7606;DHT22;3844;53.360;9.738;2023-02-28T06:20:35;-3.50;95.70
7606;DHT22;3844;53.360;9.738;2023-02-28T06:22:37;-3.50;95.70
7606;DHT22;3844;53.360;9.738;2023-02-28T06:24:37;-3.60;95.70
7606;DHT22;3844;53.360;9.738;2023-02-28T06:26:38;-3.60;95.70
7606;DHT22;3844;53.360;9.738;2023-02-28T06:28:39;-3.60;95.70
7606;DHT22;3844;53.360;9.738;2023-02-28T06:30:40;-3.60;95.70
7606;DHT22;3844;53.360;9.738;2023-02-28T06:32:40;-3.60;95.70
7606;DHT22;3844;53.360;9.738;2023-02-28T06:34:41;-3.60;95.70
7606;DHT22;3844;53.360;9.738;2023-02-28T06:36:42;-3.60;95.70
7606;DHT22;3844;53.360;9.738;2023-02-28T06:38:43;-3.60;95.70
7606;DHT22;3844;53.360;9.738;2023-02-28T06:40:44;-3.60;95.70
7606;DHT22;3844;53.360;9.738;2023-02-28T06:42:45;-3.60;95.70
7606;DHT22;3844;53.360;9.738;2023-02-28T06:44:46;-3.50;95.70
7606;DHT22;3844;53.360;9.738;2023-02-28T06:46:47;-3.50;95.70
7606;DHT22;3844;53.360;9.738;2023-02-28T06:48:47;-3.50;95.70
7606;DHT22;3844;53.360;9.738;2023-02-28T06:50:48;-3.60;95.70
7606;DHT22;3844;53.360;9.738;2023-02-28T06:52:49;-3.60;95.70
7606;DHT22;3844;53.360;9.738;2023-02-28T06:57:00;-3.50;95.70
7606;DHT22;3844;53.360;9.738;2023-02-28T06:59:01;-3.50;95.70
7606;DHT22;3844;53.360;9.738;2023-02-28T07:01:03;-3.50;95.70
7606;DHT22;3844;53.360;9.738;2023-02-28T07:03:03;-3.50;95.70
7606;DHT22;3844;53.360;9.738;2023-02-28T07:05:05;-3.50;95.70
7606;DHT22;3844;53.360;9.738;2023-02-28T07:07:06;-3.40;95.70
7606;DHT22;3844;53.360;9.738;2023-02-28T07:11:08;-3.30;95.70
7606;DHT22;3844;53.360;9.738;2023-02-28T07:13:09;-3.30;95.70
7606;DHT22;3844;53.360;9.738;2023-02-28T07:15:10;-3.30;95.70
7606;DHT22;3844;53.360;9.738;2023-02-28T07:17:11;-3.30;95.70
7606;DHT22;3844;53.360;9.738;2023-02-28T07:19:12;-3.30;95.70
7606;DHT22;3844;53.360;9.738;2023-02-28T07:21:13;-3.30;95.70
7606;DHT22;3844;53.360;9.738;2023-02-28T07:23:13;-3.30;95.70
7606;DHT22;3844;53.360;9.738;2023-02-28T07:25:14;-3.30;95.70
7606;DHT22;3844;53.360;9.738;2023-02-28T07:27:15;-3.30;95.70
7606;DHT22;3844;53.360;9.738;2023-02-28T07:29:23;-3.20;95.70
7606;DHT22;3844;53.360;9.738;2023-02-28T07:31:24;-3.20;95.70
7606;DHT22;3844;53.360;9.738;2023-02-28T07:33:25;-3.20;95.70
7606;DHT22;3844;53.360;9.738;2023-02-28T07:39:31;-3.00;95.70
7606;DHT22;3844;53.360;9.738;2023-02-28T07:41:32;-2.90;95.70
7606;DHT22;3844;53.360;9.738;2023-02-28T07:43:35;-2.80;95.70
7606;DHT22;3844;53.360;9.738;2023-02-28T07:49:37;-2.70;95.70
7606;DHT22;3844;53.360;9.738;2023-02-28T07:51:38;-2.60;95.70
7606;DHT22;3844;53.360;9.738;2023-02-28T07:53:40;-2.50;95.70
7606;DHT22;3844;53.360;9.738;2023-02-28T07:55:41;-2.40;95.70
7606;DHT22;3844;53.360;9.738;2023-02-28T07:57:42;-2.30;95.70
7606;DHT22;3844;53.360;9.738;2023-02-28T07:59:43;-2.20;95.70
7606;DHT22;3844;53.360;9.738;2023-02-28T08:01:44;-2.10;95.70
7606;DHT22;3844;53.360;9.738;2023-02-28T08:03:45;-2.00;95.70
7606;DHT22;3844;53.360;9.738;2023-02-28T08:05:45;-1.90;95.70
7606;DHT22;3844;53.360;9.738;2023-02-28T08:07:46;-1.80;95.70
7606;DHT22;3844;53.360;9.738;2023-02-28T08:09:48;-1.60;95.70
7606;DHT22;3844;53.360;9.738;2023-02-28T08:11:49;-1.50;95.70
7606;DHT22;3844;53.360;9.738;2023-02-28T08:13:50;-1.50;95.70
7606;DHT22;3844;53.360;9.738;2023-02-28T08:15:51;-1.40;95.70
7606;DHT22;3844;53.360;9.738;2023-02-28T08:17:52;-1.30;95.70
7606;DHT22;3844;53.360;9.738;2023-02-28T08:19:52;-1.20;95.70
7606;DHT22;3844;53.360;9.738;2023-02-28T08:21:56;-1.10;95.70
7606;DHT22;3844;53.360;9.738;2023-02-28T08:23:57;-1.10;95.70
7606;DHT22;3844;53.360;9.738;2023-02-28T08:25:58;-1.00;95.70
7606;DHT22;3844;53.360;9.738;2023-02-28T08:27:59;-0.80;95.70
7606;DHT22;3844;53.360;9.738;2023-02-28T08:29:59;-0.80;95.70
7606;DHT22;3844;53.360;9.738;2023-02-28T08:32:00;-0.70;95.70
7606;DHT22;3844;53.360;9.738;2023-02-28T08:34:12;-0.60;95.70
7606;DHT22;3844;53.360;9.738;2023-02-28T08:36:14;-0.50;95.70
7606;DHT22;3844;53.360;9.738;2023-02-28T08:40:17;-0.20;95.70
7606;DHT22;3844;53.360;9.738;2023-02-28T08:44:21;0.00;95.70
7606;DHT22;3844;53.360;9.738;2023-02-28T08:46:22;0.20;95.70
7606;DHT22;3844;53.360;9.738;2023-02-28T08:48:24;0.30;95.70
7606;DHT22;3844;53.360;9.738;2023-02-28T08:52:27;0.70;95.70
7606;DHT22;3844;53.360;9.738;2023-02-28T08:54:27;0.90;95.70
7606;DHT22;3844;53.360;9.738;2023-02-28T08:56:31;1.20;95.70
7606;DHT22;3844;53.360;9.738;2023-02-28T08:58:32;1.70;95.70
7606;DHT22;3844;53.360;9.738;2023-02-28T09:02:34;2.70;95.70
7606;DHT22;3844;53.360;9.738;2023-02-28T09:04:34;3.10;95.70
7606;DHT22;3844;53.360;9.738;2023-02-28T09:06:35;3.50;95.70
7606;DHT22;3844;53.360;9.738;2023-02-28T09:08:36;4.00;95.70
7606;DHT22;3844;53.360;9.738;2023-02-28T09:10:37;4.30;94.70
7606;DHT22;3844;53.360;9.738;2023-02-28T09:12:37;4.70;93.10
7606;DHT22;3844;53.360;9.738;2023-02-28T09:14:38;5.10;90.20
7606;DHT22;3844;53.360;9.738;2023-02-28T09:16:39;5.50;87.20
7606;DHT22;3844;53.360;9.738;2023-02-28T09:18:40;5.80;83.20
7606;DHT22;3844;53.360;9.738;2023-02-28T09:20:44;6.10;81.70
7606;DHT22;3844;53.360;9.738;2023-02-28T09:22:44;6.20;73.60
7606;DHT22;3844;53.360;9.738;2023-02-28T09:26:46;6.60;70.30
7606;DHT22;3844;53.360;9.738;2023-02-28T09:28:47;6.70;70.10
7606;DHT22;3844;53.360;9.738;2023-02-28T09:30:50;6.80;70.80
7606;DHT22;3844;53.360;9.738;2023-02-28T09:32:51;7.10;69.00
7606;DHT22;3844;53.360;9.738;2023-02-28T09:34:54;7.20;69.20
7606;DHT22;3844;53.360;9.738;2023-02-28T09:36:54;7.40;69.30
7606;DHT22;3844;53.360;9.738;2023-02-28T09:38:55;7.60;64.70
7606;DHT22;3844;53.360;9.738;2023-02-28T09:40:58;7.80;64.10
7606;DHT22;3844;53.360;9.738;2023-02-28T09:43:00;7.90;65.50
7606;DHT22;3844;53.360;9.738;2023-02-28T09:45:02;8.30;66.70
7606;DHT22;3844;53.360;9.738;2023-02-28T09:47:29;8.50;65.70
7606;DHT22;3844;53.360;9.738;2023-02-28T09:49:37;8.90;65.50
7606;DHT22;3844;53.360;9.738;2023-02-28T09:51:51;9.30;66.10
7606;DHT22;3844;53.360;9.738;2023-02-28T09:53:56;9.60;63.20
7606;DHT22;3844;53.360;9.738;2023-02-28T09:56:03;9.70;60.50
7606;DHT22;3844;53.360;9.738;2023-02-28T09:58:05;9.90;61.00
7606;DHT22;3844;53.360;9.738;2023-02-28T10:00:37;10.20;61.20
7606;DHT22;3844;53.360;9.738;2023-02-28T10:05:29;11.00;61.40
7606;DHT22;3844;53.360;9.738;2023-02-28T10:09:53;11.60;59.20
7606;DHT22;3844;53.360;9.738;2023-02-28T10:11:59;11.80;57.40
7606;DHT22;3844;53.360;9.738;2023-02-28T10:14:06;11.80;56.50
7606;DHT22;3844;53.360;9.738;2023-02-28T10:16:18;12.00;56.80
7606;DHT22;3844;53.360;9.738;2023-02-28T10:18:26;12.00;54.30
7606;DHT22;3844;53.360;9.738;2023-02-28T10:20:28;11.80;52.30
7606;DHT22;3844;53.360;9.738;2023-02-28T10:22:53;11.80;54.50
7606;DHT22;3844;53.360;9.738;2023-02-28T10:24:57;11.70;52.80
7606;DHT22;3844;53.360;9.738;2023-02-28T10:27:21;11.70;53.40
7606;DHT22;3844;53.360;9.738;2023-02-28T10:29:22;11.60;52.60
7606;DHT22;3844;53.360;9.738;2023-02-28T10:31:23;11.60;54.00
7606;DHT22;3844;53.360;9.738;2023-02-28T10:33:31;11.70;53.60
7606;DHT22;3844;53.360;9.738;2023-02-28T10:35:32;11.90;53.90
7606;DHT22;3844;53.360;9.738;2023-02-28T10:37:36;12.10;54.70
7606;DHT22;3844;53.360;9.738;2023-02-28T10:39:42;12.40;53.70
7606;DHT22;3844;53.360;9.738;2023-02-28T10:41:43;12.60;52.00
7606;DHT22;3844;53.360;9.738;2023-02-28T10:43:44;12.70;52.40
7606;DHT22;3844;53.360;9.738;2023-02-28T10:50:35;13.30;51.30
7606;DHT22;3844;53.360;9.738;2023-02-28T10:52:41;13.30;49.70
7606;DHT22;3844;53.360;9.738;2023-02-28T10:54:42;13.20;49.80
7606;DHT22;3844;53.360;9.738;2023-02-28T10:56:43;13.00;50.70
7606;DHT22;3844;53.360;9.738;2023-02-28T11:00:53;13.10;51.70
7606;DHT22;3844;53.360;9.738;2023-02-28T11:04:55;13.50;50.50
7606;DHT22;3844;53.360;9.738;2023-02-28T11:07:05;13.70;51.80
7606;DHT22;3844;53.360;9.738;2023-02-28T11:09:36;13.70;48.70
7606;DHT22;3844;53.360;9.738;2023-02-28T11:11:46;13.80;48.90
7606;DHT22;3844;53.360;9.738;2023-02-28T11:13:51;13.80;48.30
7606;DHT22;3844;53.360;9.738;2023-02-28T11:15:59;13.60;47.70
7606;DHT22;3844;53.360;9.738;2023-02-28T11:20:13;13.60;48.40
7606;DHT22;3844;53.360;9.738;2023-02-28T11:22:27;13.60;49.20
7606;DHT22;3844;53.360;9.738;2023-02-28T11:24:40;13.70;51.00
7606;DHT22;3844;53.360;9.738;2023-02-28T11:26:46;13.90;51.80
7606;DHT22;3844;53.360;9.738;2023-02-28T11:29:05;14.20;50.00
7606;DHT22;3844;53.360;9.738;2023-02-28T11:34:07;14.30;47.80
7606;DHT22;3844;53.360;9.738;2023-02-28T11:35:45;14.30;46.70
7606;DHT22;3844;53.360;9.738;2023-02-28T11:37:48;14.20;45.30
7606;DHT22;3844;53.360;9.738;2023-02-28T11:39:49;14.10;46.50
7606;DHT22;3844;53.360;9.738;2023-02-28T11:46:27;14.00;45.30
7606;DHT22;3844;53.360;9.738;2023-02-28T11:55:45;14.80;45.20
7606;DHT22;3844;53.360;9.738;2023-02-28T12:02:22;14.10;47.20
7606;DHT22;3844;53.360;9.738;2023-02-28T12:04:45;14.50;48.70
7606;DHT22;3844;53.360;9.738;2023-02-28T12:07:03;14.90;46.70
7606;DHT22;3844;53.360;9.738;2023-02-28T12:27:49;16.00;46.00
7606;DHT22;3844;53.360;9.738;2023-02-28T12:29:58;16.00;45.60
7606;DHT22;3844;53.360;9.738;2023-02-28T12:34:19;16.10;44.50
7606;DHT22;3844;53.360;9.738;2023-02-28T12:36:21;15.70;43.90
7606;DHT22;3844;53.360;9.738;2023-02-28T12:38:38;15.70;45.70
7606;DHT22;3844;53.360;9.738;2023-02-28T12:40:44;15.90;45.70
7606;DHT22;3844;53.360;9.738;2023-02-28T12:42:50;16.20;46.30
7606;DHT22;3844;53.360;9.738;2023-02-28T12:45:12;16.50;45.90
7606;DHT22;3844;53.360;9.738;2023-02-28T12:47:15;16.70;41.50
7606;DHT22;3844;53.360;9.738;2023-02-28T12:49:21;16.70;41.30
7606;DHT22;3844;53.360;9.738;2023-02-28T12:51:25;15.70;42.20
7606;DHT22;3844;53.360;9.738;2023-02-28T13:00:33;14.00;47.50
7606;DHT22;3844;53.360;9.738;2023-02-28T13:09:41;14.20;45.60
7606;DHT22;3844;53.360;9.738;2023-02-28T13:13:46;14.50;45.20
7606;DHT22;3844;53.360;9.738;2023-02-28T13:16:14;14.50;46.50
7606;DHT22;3844;53.360;9.738;2023-02-28T13:18:35;14.80;43.50
7606;DHT22;3844;53.360;9.738;2023-02-28T13:20:47;14.90;44.40
7606;DHT22;3844;53.360;9.738;2023-02-28T13:22:50;14.90;46.00
7606;DHT22;3844;53.360;9.738;2023-02-28T13:24:55;15.00;46.50
7606;DHT22;3844;53.360;9.738;2023-02-28T13:31:16;15.50;46.00
7606;DHT22;3844;53.360;9.738;2023-02-28T13:33:27;15.50;42.60
7606;DHT22;3844;53.360;9.738;2023-02-28T13:35:37;15.30;45.60
7606;DHT22;3844;53.360;9.738;2023-02-28T13:37:47;15.20;43.00
7606;DHT22;3844;53.360;9.738;2023-02-28T13:42:32;14.80;44.40
7606;DHT22;3844;53.360;9.738;2023-02-28T13:45:19;14.60;46.50
7606;DHT22;3844;53.360;9.738;2023-02-28T13:47:51;14.90;47.30
7606;DHT22;3844;53.360;9.738;2023-02-28T13:49:52;15.40;46.90
7606;DHT22;3844;53.360;9.738;2023-02-28T13:54:04;15.80;45.60
7606;DHT22;3844;53.360;9.738;2023-02-28T13:56:29;15.80;44.70
7606;DHT22;3844;53.360;9.738;2023-02-28T14:05:18;15.60;46.20
7606;DHT22;3844;53.360;9.738;2023-02-28T14:07:24;15.70;45.50
7606;DHT22;3844;53.360;9.738;2023-02-28T14:15:50;15.20;46.30
7606;DHT22;3844;53.360;9.738;2023-02-28T14:17:56;15.10;46.80
7606;DHT22;3844;53.360;9.738;2023-02-28T14:19:59;15.10;47.40
7606;DHT22;3844;53.360;9.738;2023-02-28T14:24:48;15.10;47.40
7606;DHT22;3844;53.360;9.738;2023-02-28T14:36:25;13.10;49.30
7606;DHT22;3844;53.360;9.738;2023-02-28T14:38:43;12.50;49.00
7606;DHT22;3844;53.360;9.738;2023-02-28T14:40:46;12.00;50.60
7606;DHT22;3844;53.360;9.738;2023-02-28T14:42:59;11.50;51.90
7606;DHT22;3844;53.360;9.738;2023-02-28T14:45:01;11.20;53.30
7606;DHT22;3844;53.360;9.738;2023-02-28T14:47:02;11.00;53.00
7606;DHT22;3844;53.360;9.738;2023-02-28T14:49:26;10.60;52.90
7606;DHT22;3844;53.360;9.738;2023-02-28T14:51:27;10.30;54.40
7606;DHT22;3844;53.360;9.738;2023-02-28T14:53:35;10.20;55.10
7606;DHT22;3844;53.360;9.738;2023-02-28T14:55:36;10.10;54.20
7606;DHT22;3844;53.360;9.738;2023-02-28T14:57:49;9.90;54.10
7606;DHT22;3844;53.360;9.738;2023-02-28T15:02:21;9.40;53.90
7606;DHT22;3844;53.360;9.738;2023-02-28T15:04:26;9.10;53.80
7606;DHT22;3844;53.360;9.738;2023-02-28T15:06:27;8.90;52.80
7606;DHT22;3844;53.360;9.738;2023-02-28T15:08:29;8.70;52.30
7606;DHT22;3844;53.360;9.738;2023-02-28T15:10:32;8.50;52.30
7606;DHT22;3844;53.360;9.738;2023-02-28T15:12:34;8.30;50.10
7606;DHT22;3844;53.360;9.738;2023-02-28T15:14:36;8.00;51.10
7606;DHT22;3844;53.360;9.738;2023-02-28T15:16:41;7.90;50.90
7606;DHT22;3844;53.360;9.738;2023-02-28T15:18:50;7.60;49.60
7606;DHT22;3844;53.360;9.738;2023-02-28T15:20:53;7.50;50.30
7606;DHT22;3844;53.360;9.738;2023-02-28T15:22:55;7.40;50.20
7606;DHT22;3844;53.360;9.738;2023-02-28T15:24:56;7.30;50.90
7606;DHT22;3844;53.360;9.738;2023-02-28T15:27:00;7.20;49.70
7606;DHT22;3844;53.360;9.738;2023-02-28T15:29:08;7.00;51.50
7606;DHT22;3844;53.360;9.738;2023-02-28T15:31:29;7.00;51.60
7606;DHT22;3844;53.360;9.738;2023-02-28T15:33:32;6.90;53.10
7606;DHT22;3844;53.360;9.738;2023-02-28T15:35:34;6.90;52.70
7606;DHT22;3844;53.360;9.738;2023-02-28T15:37:40;6.80;52.00
7606;DHT22;3844;53.360;9.738;2023-02-28T15:39:42;6.70;53.60
7606;DHT22;3844;53.360;9.738;2023-02-28T15:41:44;6.60;52.80
7606;DHT22;3844;53.360;9.738;2023-02-28T15:43:45;6.50;52.70
7606;DHT22;3844;53.360;9.738;2023-02-28T15:45:48;6.40;53.40
7606;DHT22;3844;53.360;9.738;2023-02-28T15:47:53;6.30;53.70
7606;DHT22;3844;53.360;9.738;2023-02-28T15:51:58;6.10;54.70
7606;DHT22;3844;53.360;9.738;2023-02-28T15:54:02;6.00;53.70
7606;DHT22;3844;53.360;9.738;2023-02-28T15:56:04;6.00;53.70
7606;DHT22;3844;53.360;9.738;2023-02-28T15:58:05;5.90;55.00
7606;DHT22;3844;53.360;9.738;2023-02-28T16:00:11;5.80;56.20
7606;DHT22;3844;53.360;9.738;2023-02-28T16:02:19;5.80;55.70
7606;DHT22;3844;53.360;9.738;2023-02-28T16:04:21;5.70;55.80
7606;DHT22;3844;53.360;9.738;2023-02-28T16:08:33;5.60;55.80
7606;DHT22;3844;53.360;9.738;2023-02-28T16:10:34;5.60;55.70
7606;DHT22;3844;53.360;9.738;2023-02-28T16:12:36;5.50;55.60
7606;DHT22;3844;53.360;9.738;2023-02-28T16:14:37;5.40;55.90
7606;DHT22;3844;53.360;9.738;2023-02-28T16:16:46;5.40;56.20
7606;DHT22;3844;53.360;9.738;2023-02-28T16:18:48;5.30;57.30
7606;DHT22;3844;53.360;9.738;2023-02-28T16:20:49;5.20;57.00
7606;DHT22;3844;53.360;9.738;2023-02-28T16:22:50;5.20;57.90
7606;DHT22;3844;53.360;9.738;2023-02-28T16:24:51;5.10;57.90
7606;DHT22;3844;53.360;9.738;2023-02-28T16:26:53;5.00;58.50
7606;DHT22;3844;53.360;9.738;2023-02-28T16:28:56;4.90;58.80
7606;DHT22;3844;53.360;9.738;2023-02-28T16:30:57;4.80;59.30
7606;DHT22;3844;53.360;9.738;2023-02-28T16:32:58;4.80;59.80
7606;DHT22;3844;53.360;9.738;2023-02-28T16:34:59;4.70;60.90
7606;DHT22;3844;53.360;9.738;2023-02-28T16:39:00;4.60;62.60
7606;DHT22;3844;53.360;9.738;2023-02-28T16:41:03;4.40;63.40
7606;DHT22;3844;53.360;9.738;2023-02-28T16:43:07;4.30;64.00
7606;DHT22;3844;53.360;9.738;2023-02-28T16:45:17;4.20;64.70
7606;DHT22;3844;53.360;9.738;2023-02-28T16:47:20;4.10;65.10
7606;DHT22;3844;53.360;9.738;2023-02-28T16:49:24;4.00;65.40
7606;DHT22;3844;53.360;9.738;2023-02-28T16:51:25;3.90;65.60
7606;DHT22;3844;53.360;9.738;2023-02-28T16:53:26;3.90;66.30
7606;DHT22;3844;53.360;9.738;2023-02-28T16:55:27;3.80;66.70
7606;DHT22;3844;53.360;9.738;2023-02-28T16:59:29;3.50;67.60